Pagina principale
METAR-TAF:

METAR-TAF

Aeroporti :

Aeroporto Internazionale di Nadi

Nadi, Figi

latitudine: 17-45S, longitudine: 177-27E, altezza: 13 m

Osservazione

Il bollettino è stato emesso 57 minuti fa, alle 00:00 UTC
Vento 11 kt da ovest
Temperature 26°C
Umidità 61%
Pressione 1013 hPa
Visibilità 10 km o più
Poco nuvoloso ad un'altezza di 3000 ft

METAR: NFFN 160000Z 28011KT 9999 FEW030 26/18 Q1013 NOSIG

Ora: 12:57 (00:57 UTC)

Previsione

Il bollettino è stato emesso 1 ora e 57 minuti fa, alle 23:00 UTC
Previsione valida dal 16 alle 00 UTC al 16 alle 24 UTC
Vento 10 kt da ovest
Visibilità 10 km o più
Nubi sparse ad un'altezza di 2800 ft
Nubi sparse ad un'altezza di 4500 ft
Evoluzione graduale
dal 16 alle 05 UTC al 16 alle 07 UTC
Vento 5 kt da est
Evoluzione graduale
dal 17 alle 00 UTC al 16 alle 24 UTC
Vento 10 kt da ovest

TAF: NFFN 152300Z 1600/1624 27010KT 9999 SCT028 SCT045 BECMG 1605/1607 10005KT BECMG 1700/1624 27010KT

Osservazioni e previsioni meteorologiche di più di 4000 aeroporti (messaggi METAR e TAF).

Le stazioni disponibili sono rappresentate dai dischi gialli e rossi sulla carta.

Puntare il mouse per vedere il nome della stazione.

Clicca sopra per visualizzare le osservazioni e previsioni meteorologiche.

Per cambiare la mappa : fare clic sui pulsanti verdi con una croce nera per ingrandire, il pulsante verde con un trattino per diminuire, o sulla freccia verde per le mappe adiacenti.


METAR-TAF: